createdAt,value
2018-04-24T00:00:20.933Z,3.50
2018-04-24T00:02:54.435Z,3.57
2018-04-24T00:05:28.130Z,3.23
2018-04-24T00:08:01.876Z,3.50
2018-04-24T00:10:35.520Z,3.57
2018-04-24T00:13:09.042Z,3.50
2018-04-24T00:15:42.604Z,3.10
2018-04-24T00:18:16.151Z,3.33
2018-04-24T00:20:49.670Z,3.03
2018-04-24T00:23:23.389Z,3.03
2018-04-24T00:25:57.090Z,3.10
2018-04-24T00:28:30.851Z,3.30
2018-04-24T00:31:04.624Z,3.13
2018-04-24T00:33:38.576Z,3.30
2018-04-24T00:36:12.389Z,3.40
2018-04-24T00:38:46.187Z,3.20
2018-04-24T00:41:19.699Z,3.80
2018-04-24T00:43:53.271Z,3.70
2018-04-24T00:46:26.957Z,4.40
2018-04-24T00:49:00.611Z,3.17
2018-04-24T00:51:34.237Z,3.10
2018-04-24T00:54:07.874Z,3.77
2018-04-24T00:56:41.664Z,3.27
2018-04-24T00:59:16.017Z,3.70
2018-04-24T01:01:49.807Z,3.67
2018-04-24T01:04:23.524Z,2.90
2018-04-24T01:06:57.056Z,3.03
2018-04-24T01:09:30.950Z,2.77
2018-04-24T01:12:04.688Z,3.10
2018-04-24T01:14:38.292Z,2.90
2018-04-24T01:17:11.847Z,3.00
2018-04-24T01:19:45.360Z,3.07
2018-04-24T01:22:19.391Z,2.80
2018-04-24T01:24:52.943Z,3.00
2018-04-24T01:27:26.691Z,2.63
2018-04-24T01:30:00.225Z,3.43
2018-04-24T01:32:34.012Z,3.27
2018-04-24T01:35:07.614Z,3.20
2018-04-24T01:37:41.300Z,2.97
2018-04-24T01:40:14.937Z,2.97
2018-04-24T01:42:48.707Z,3.27
2018-04-24T01:45:22.218Z,2.97
2018-04-24T01:47:55.796Z,2.97
2018-04-24T01:50:29.344Z,3.00
2018-04-24T01:53:02.948Z,3.03
2018-04-24T01:55:36.727Z,3.07
2018-04-24T01:58:10.376Z,2.97
2018-04-24T02:00:44.040Z,3.10
2018-04-24T02:03:17.663Z,3.73
2018-04-24T02:05:51.244Z,3.13
2018-04-24T02:08:24.796Z,3.13
2018-04-24T02:10:58.304Z,2.67
2018-04-24T02:13:31.875Z,3.23
2018-04-24T02:16:05.535Z,3.60
2018-04-24T02:18:39.180Z,3.43
2018-04-24T02:21:12.947Z,3.27
2018-04-24T02:23:46.543Z,3.10
2018-04-24T02:26:20.072Z,3.20
2018-04-24T02:28:53.667Z,3.37
2018-04-24T02:31:27.336Z,4.03
2018-04-24T02:34:01.452Z,3.70
2018-04-24T02:36:35.096Z,3.87
2018-04-24T02:39:08.734Z,4.03
2018-04-24T02:41:42.244Z,3.97
2018-04-24T02:44:15.908Z,4.37
2018-04-24T02:46:49.555Z,3.93
2018-04-24T02:49:23.409Z,4.57
2018-04-24T02:51:56.997Z,4.60
2018-04-24T02:54:30.617Z,4.30
2018-04-24T02:57:04.277Z,4.93
2018-04-24T02:59:37.795Z,4.40
2018-04-24T03:02:11.431Z,4.97
2018-04-24T03:04:45.199Z,4.70
2018-04-24T03:07:18.986Z,4.93
2018-04-24T03:09:52.592Z,4.70
2018-04-24T03:12:26.219Z,4.63
2018-04-24T03:14:59.792Z,4.90
2018-04-24T03:17:33.443Z,4.70
2018-04-24T03:20:07.078Z,4.77
2018-04-24T03:22:40.638Z,4.27
2018-04-24T03:25:14.155Z,4.93
2018-04-24T03:27:47.692Z,5.20
2018-04-24T03:30:21.416Z,4.87
2018-04-24T03:32:54.944Z,5.47
2018-04-24T03:35:28.495Z,4.60
2018-04-24T03:38:02.111Z,5.20
2018-04-24T03:40:35.704Z,5.57
2018-04-24T03:43:09.296Z,5.13
2018-04-24T03:45:42.813Z,5.07
2018-04-24T03:48:16.439Z,5.40
2018-04-24T03:50:50.096Z,5.80
2018-04-24T03:53:23.764Z,5.60
2018-04-24T03:55:57.280Z,5.80
2018-04-24T03:58:30.979Z,5.70
2018-04-24T04:01:04.632Z,5.80
2018-04-24T04:03:38.265Z,5.87
2018-04-24T04:06:11.871Z,5.87
2018-04-24T04:08:45.470Z,6.03
2018-04-24T04:11:19.028Z,6.10
2018-04-24T04:13:52.656Z,6.07
2018-04-24T04:16:26.307Z,6.17
2018-04-24T04:19:11.784Z,6.13
2018-04-24T04:21:57.376Z,6.93
2018-04-24T04:27:25.720Z,5.97
2018-04-24T04:29:59.422Z,6.43
2018-04-24T04:32:33.084Z,5.90
2018-04-24T04:35:06.803Z,6.53
2018-04-24T04:37:40.429Z,5.93
2018-04-24T04:40:13.983Z,6.47
2018-04-24T04:42:47.732Z,6.10
2018-04-24T04:45:21.357Z,6.37
2018-04-24T04:47:55.040Z,5.43
2018-04-24T04:50:28.611Z,6.17
2018-04-24T04:53:02.656Z,5.53
2018-04-24T04:55:36.215Z,5.97
2018-04-24T04:58:09.823Z,5.50
2018-04-24T05:00:43.421Z,5.17
2018-04-24T05:03:17.033Z,4.70
2018-04-24T05:05:50.724Z,5.00
2018-04-24T05:08:24.455Z,4.93
2018-04-24T05:10:58.145Z,4.93
2018-04-24T05:13:31.788Z,4.90
2018-04-24T05:16:05.436Z,4.60
2018-04-24T05:18:38.941Z,4.27
2018-04-24T05:21:12.684Z,5.00
2018-04-24T05:23:46.245Z,4.40
2018-04-24T05:26:19.807Z,5.00
2018-04-24T05:28:53.416Z,4.47
2018-04-24T05:31:27.043Z,4.40
2018-04-24T05:34:00.624Z,4.47
2018-04-24T05:36:34.291Z,4.27
2018-04-24T05:39:07.990Z,4.57
2018-04-24T05:41:41.520Z,4.27
2018-04-24T05:44:15.151Z,3.80
2018-04-24T05:46:48.845Z,4.17
2018-04-24T05:49:22.431Z,3.90
2018-04-24T05:51:56.023Z,3.90
2018-04-24T05:54:29.588Z,4.17
2018-04-24T05:57:03.113Z,3.43
2018-04-24T05:59:36.915Z,3.60
2018-04-24T06:02:10.455Z,3.63
2018-04-24T06:04:44.240Z,3.57
2018-04-24T06:07:17.920Z,4.03
2018-04-24T06:09:51.519Z,4.03
2018-04-24T06:12:25.068Z,3.40
2018-04-24T06:14:58.755Z,4.20
2018-04-24T06:17:32.439Z,3.40
2018-04-24T06:20:06.152Z,3.03
2018-04-24T06:22:39.844Z,3.30
2018-04-24T06:25:13.476Z,3.17
2018-04-24T06:27:47.020Z,3.10
2018-04-24T06:30:20.605Z,3.33
2018-04-24T06:32:54.155Z,3.67
2018-04-24T06:35:27.968Z,3.77
2018-04-24T06:38:01.753Z,3.03
2018-04-24T06:40:35.387Z,3.40
2018-04-24T06:43:09.148Z,2.90
2018-04-24T06:45:42.712Z,3.73
2018-04-24T06:48:16.313Z,3.20
2018-04-24T06:50:49.936Z,3.67
2018-04-24T06:53:23.666Z,3.50
2018-04-24T06:55:57.428Z,3.57
2018-04-24T06:58:31.040Z,3.40
2018-04-24T07:01:04.795Z,3.80
2018-04-24T07:03:38.605Z,3.60
2018-04-24T07:06:12.128Z,3.27
2018-04-24T07:08:45.776Z,3.47
2018-04-24T07:11:19.614Z,3.90
2018-04-24T07:13:53.076Z,3.83
2018-04-24T07:16:26.687Z,3.63
2018-04-24T07:19:00.275Z,3.47
2018-04-24T07:21:33.811Z,3.63
2018-04-24T07:24:07.365Z,3.60
2018-04-24T07:26:41.107Z,4.27
2018-04-24T07:29:14.712Z,3.73
2018-04-24T07:31:48.568Z,4.33
2018-04-24T07:34:22.083Z,4.50
2018-04-24T07:36:55.776Z,4.03
2018-04-24T07:39:29.439Z,4.10
2018-04-24T07:42:03.048Z,4.43
2018-04-24T07:44:36.596Z,3.63
2018-04-24T07:47:10.333Z,4.33
2018-04-24T07:49:43.923Z,3.90
2018-04-24T07:52:17.983Z,3.87
2018-04-24T07:54:51.551Z,4.17
2018-04-24T07:57:25.262Z,4.03
2018-04-24T07:59:58.928Z,4.03
2018-04-24T08:02:32.640Z,4.40
2018-04-24T08:05:06.187Z,4.37
2018-04-24T08:07:39.896Z,4.37
2018-04-24T08:10:13.512Z,4.30
2018-04-24T08:12:47.244Z,4.00
2018-04-24T08:15:20.806Z,4.63
2018-04-24T08:17:54.457Z,4.17
2018-04-24T08:20:27.992Z,4.63
2018-04-24T08:23:01.828Z,3.87
2018-04-24T08:25:35.484Z,4.47
2018-04-24T08:28:09.289Z,3.97
2018-04-24T08:30:42.920Z,4.43
2018-04-24T08:33:16.484Z,4.90
2018-04-24T08:35:50.180Z,5.20
2018-04-24T08:38:23.965Z,5.00
2018-04-24T08:40:57.475Z,4.57
2018-04-24T08:43:31.088Z,4.73
2018-04-24T08:46:04.639Z,4.83
2018-04-24T08:48:38.244Z,5.23
2018-04-24T08:51:11.784Z,5.23
2018-04-24T08:53:45.527Z,5.47
2018-04-24T08:56:19.046Z,7.00
2018-04-24T08:58:52.609Z,6.13
2018-04-24T09:01:26.267Z,6.03
2018-04-24T09:03:59.804Z,7.63
2018-04-24T09:06:33.399Z,7.00
2018-04-24T09:09:07.177Z,7.90
2018-04-24T09:11:40.760Z,8.07
2018-04-24T09:14:14.288Z,8.03
2018-04-24T09:16:47.907Z,9.27
2018-04-24T09:19:21.566Z,9.30
2018-04-24T09:21:55.196Z,8.50
2018-04-24T09:24:28.856Z,9.87
2018-04-24T09:27:02.730Z,8.50
2018-04-24T09:29:36.308Z,8.40
2018-04-24T09:32:09.976Z,9.07
2018-04-24T09:34:43.640Z,9.13
2018-04-24T09:37:17.367Z,9.50
2018-04-24T09:39:51.044Z,10.83
2018-04-24T09:42:24.860Z,9.60
2018-04-24T09:44:58.384Z,9.93
2018-04-24T09:47:31.961Z,9.93
2018-04-24T09:50:05.523Z,9.60
2018-04-24T09:52:39.296Z,10.33
2018-04-24T09:55:12.783Z,9.60
2018-04-24T09:57:46.460Z,9.80
2018-04-24T10:00:25.524Z,10.13
2018-04-24T10:02:59.104Z,10.20
2018-04-24T10:05:32.708Z,9.77
2018-04-24T10:08:06.496Z,9.40
2018-04-24T10:10:40.015Z,9.60
2018-04-24T10:13:13.747Z,8.47
2018-04-24T10:15:47.436Z,7.73
2018-04-24T10:18:21.052Z,8.40
2018-04-24T10:20:54.729Z,9.50
2018-04-24T10:23:28.332Z,9.50
2018-04-24T10:26:01.972Z,9.33
2018-04-24T10:28:35.636Z,9.93
2018-04-24T10:31:09.201Z,9.60
2018-04-24T10:33:42.983Z,9.50
2018-04-24T10:36:16.553Z,8.67
2018-04-24T10:38:50.317Z,9.27
2018-04-24T10:41:23.953Z,7.70
2018-04-24T10:43:57.739Z,8.00
2018-04-24T10:46:31.465Z,7.33
2018-04-24T10:49:05.000Z,7.73
2018-04-24T10:51:38.654Z,7.43
2018-04-24T10:54:12.144Z,7.53
2018-04-24T10:56:45.667Z,8.00
2018-04-24T10:59:19.474Z,8.10
2018-04-24T11:01:53.100Z,8.33
2018-04-24T11:04:26.631Z,8.57
2018-04-24T11:07:00.224Z,9.17
2018-04-24T11:09:33.790Z,8.87
2018-04-24T11:12:07.303Z,10.10
2018-04-24T11:14:41.007Z,9.53
2018-04-24T11:17:14.586Z,10.87
2018-04-24T11:19:48.228Z,11.33
2018-04-24T11:22:22.139Z,12.07
2018-04-24T11:24:55.657Z,12.33
2018-04-24T11:27:29.188Z,12.73
2018-04-24T11:30:03.044Z,12.73
2018-04-24T11:32:36.834Z,12.90
2018-04-24T11:35:10.504Z,15.10
2018-04-24T11:37:44.081Z,14.07
2018-04-24T11:40:17.744Z,15.67
2018-04-24T11:42:51.530Z,12.93
2018-04-24T11:45:25.063Z,12.10
2018-04-24T11:47:58.636Z,12.43
2018-04-24T11:50:32.173Z,10.17
2018-04-24T11:53:05.955Z,10.07
2018-04-24T11:55:39.883Z,10.67
2018-04-24T11:58:13.412Z,10.80
2018-04-24T12:00:46.948Z,10.17
2018-04-24T12:03:20.496Z,12.07
2018-04-24T12:05:54.031Z,11.33
2018-04-24T12:08:27.599Z,12.40
2018-04-24T12:11:01.083Z,10.73
2018-04-24T12:13:34.756Z,12.10
2018-04-24T12:16:08.404Z,11.60
2018-04-24T12:18:41.928Z,13.17
2018-04-24T12:21:15.488Z,12.27
2018-04-24T12:23:49.156Z,12.03
2018-04-24T12:26:22.687Z,12.97
2018-04-24T12:28:56.331Z,13.50
2018-04-24T12:31:29.893Z,13.83
2018-04-24T12:34:03.592Z,13.20
2018-04-24T12:36:37.244Z,13.63
2018-04-24T12:39:10.876Z,12.67
2018-04-24T12:41:44.723Z,12.90
2018-04-24T12:44:18.220Z,11.97
2018-04-24T12:46:51.788Z,11.13
2018-04-24T12:49:25.323Z,10.47
2018-04-24T12:51:59.107Z,10.87
2018-04-24T12:54:32.755Z,10.93
2018-04-24T12:57:06.336Z,11.67
2018-04-24T12:59:39.939Z,10.20
2018-04-24T13:02:13.592Z,10.20
2018-04-24T13:04:47.325Z,9.57
2018-04-24T13:07:20.992Z,9.50
2018-04-24T13:09:54.635Z,10.53
2018-04-24T13:12:28.507Z,10.03
2018-04-24T13:15:02.090Z,9.73
2018-04-24T13:17:35.852Z,9.07
2018-04-24T13:20:09.441Z,9.00
2018-04-24T13:22:43.243Z,9.63
2018-04-24T13:25:17.008Z,8.77
2018-04-24T13:27:50.572Z,9.90
2018-04-24T13:30:24.188Z,10.10
2018-04-24T13:32:57.828Z,10.50
2018-04-24T13:35:31.406Z,9.63
2018-04-24T13:38:05.040Z,9.60
2018-04-24T13:40:38.620Z,9.03
2018-04-24T13:43:12.226Z,10.10
2018-04-24T13:45:45.723Z,9.87
2018-04-24T13:48:19.488Z,9.63
2018-04-24T13:50:53.072Z,9.37
2018-04-24T13:53:26.791Z,9.73
2018-04-24T13:56:00.518Z,9.23
2018-04-24T13:58:34.332Z,8.97
2018-04-24T14:01:07.856Z,8.77
2018-04-24T14:03:41.468Z,9.30
2018-04-24T14:06:15.064Z,8.63
2018-04-24T14:08:48.735Z,8.80
2018-04-24T14:11:22.386Z,9.17
2018-04-24T14:13:55.980Z,9.27
2018-04-24T14:16:29.716Z,9.37
2018-04-24T14:19:03.260Z,9.33
2018-04-24T14:21:36.964Z,9.63
2018-04-24T14:24:10.468Z,10.27
2018-04-24T14:26:44.128Z,10.00
2018-04-24T14:29:17.675Z,11.20
2018-04-24T14:31:51.164Z,10.67
2018-04-24T14:34:24.880Z,11.07
2018-04-24T14:36:58.543Z,10.07
2018-04-24T14:39:32.080Z,10.87
2018-04-24T14:42:05.559Z,9.33
2018-04-24T14:44:39.204Z,9.37
2018-04-24T14:47:12.949Z,10.60
2018-04-24T14:49:46.488Z,10.50
2018-04-24T14:52:20.148Z,9.77
2018-04-24T14:54:53.684Z,9.80
2018-04-24T14:57:27.332Z,10.03
2018-04-24T15:00:00.902Z,10.07
2018-04-24T15:02:34.433Z,9.30
2018-04-24T15:05:07.978Z,8.93
2018-04-24T15:07:41.540Z,8.90
2018-04-24T15:10:15.228Z,9.47
2018-04-24T15:12:48.984Z,8.13
2018-04-24T15:15:22.671Z,8.60
2018-04-24T15:17:56.444Z,7.73
2018-04-24T15:20:30.176Z,8.17
2018-04-24T15:23:03.784Z,7.90
2018-04-24T15:25:37.514Z,7.97
2018-04-24T15:28:11.289Z,8.33
2018-04-24T15:30:44.996Z,8.50
2018-04-24T15:33:18.575Z,7.40
2018-04-24T15:35:52.247Z,8.83
2018-04-24T15:38:25.884Z,9.33
2018-04-24T15:40:59.448Z,8.63
2018-04-24T15:43:33.008Z,8.20
2018-04-24T15:46:06.924Z,7.70
2018-04-24T15:48:40.943Z,7.97
2018-04-24T15:51:14.708Z,8.50
2018-04-24T15:53:48.475Z,7.97
2018-04-24T15:56:22.156Z,9.73
2018-04-24T15:58:55.924Z,8.90
2018-04-24T16:01:29.487Z,9.83
2018-04-24T16:04:03.100Z,9.43
2018-04-24T16:06:36.868Z,9.40
2018-04-24T16:09:10.400Z,9.37
2018-04-24T16:11:44.201Z,9.60
2018-04-24T16:14:17.807Z,9.03
2018-04-24T16:16:51.609Z,9.47
2018-04-24T16:19:25.182Z,9.30
2018-04-24T16:21:58.928Z,9.37
2018-04-24T16:24:32.664Z,9.57
2018-04-24T16:27:13.112Z,8.87
2018-04-24T16:29:46.791Z,8.77
2018-04-24T16:32:20.235Z,9.20
2018-04-24T16:34:53.973Z,9.23
2018-04-24T16:37:27.640Z,8.70
2018-04-24T16:40:01.496Z,9.07
2018-04-24T16:42:35.137Z,9.67
2018-04-24T16:45:08.829Z,9.17
2018-04-24T16:47:42.552Z,10.00
2018-04-24T16:50:16.095Z,9.70
2018-04-24T16:52:49.767Z,9.83
2018-04-24T16:55:23.438Z,9.63
2018-04-24T16:57:56.981Z,10.07
2018-04-24T17:00:30.677Z,10.43
2018-04-24T17:03:04.317Z,9.73
2018-04-24T17:05:37.876Z,10.20
2018-04-24T17:08:11.644Z,11.17
2018-04-24T17:10:45.176Z,10.60
2018-04-24T17:13:18.770Z,9.63
2018-04-24T17:15:52.331Z,10.33
2018-04-24T17:18:25.872Z,11.33
2018-04-24T17:20:59.481Z,10.67
2018-04-24T17:23:33.181Z,10.63
2018-04-24T17:26:06.936Z,10.20
2018-04-24T17:28:40.737Z,10.40
2018-04-24T17:31:14.517Z,10.00
2018-04-24T17:33:48.080Z,10.60
2018-04-24T17:36:21.916Z,10.80
2018-04-24T17:38:55.768Z,10.97
2018-04-24T17:41:29.312Z,10.57
2018-04-24T17:44:03.017Z,11.47
2018-04-24T17:46:36.868Z,10.37
2018-04-24T17:49:10.610Z,11.40
2018-04-24T17:51:44.163Z,10.40
2018-04-24T17:54:17.944Z,10.47
2018-04-24T17:56:51.703Z,9.93
2018-04-24T17:59:25.257Z,10.97
2018-04-24T18:01:58.871Z,10.50
2018-04-24T18:04:32.567Z,11.47
2018-04-24T18:07:06.175Z,10.63
2018-04-24T18:09:39.760Z,11.30
2018-04-24T18:12:13.373Z,11.10
2018-04-24T18:14:46.968Z,10.93
2018-04-24T18:17:20.573Z,10.70
2018-04-24T18:19:54.343Z,10.67
2018-04-24T18:22:28.090Z,11.27
2018-04-24T18:25:01.628Z,12.00
2018-04-24T18:27:35.184Z,11.73
2018-04-24T18:30:08.832Z,11.80
2018-04-24T18:32:42.493Z,11.50
2018-04-24T18:35:16.060Z,11.57
2018-04-24T18:37:49.735Z,11.30
2018-04-24T18:40:23.275Z,12.30
2018-04-24T18:42:56.839Z,11.67
2018-04-24T18:45:30.431Z,11.67
2018-04-24T18:48:04.184Z,11.83
2018-04-24T18:50:37.805Z,12.20
2018-04-24T18:53:11.612Z,11.27
2018-04-24T18:55:45.347Z,11.87
2018-04-24T18:58:18.907Z,11.60
2018-04-24T19:00:52.440Z,12.77
2018-04-24T19:03:26.106Z,13.10
2018-04-24T19:05:59.719Z,13.67
2018-04-24T19:08:33.355Z,12.57
2018-04-24T19:11:06.912Z,12.93
2018-04-24T19:13:40.624Z,13.27
2018-04-24T19:16:14.487Z,12.87
2018-04-24T19:21:50.139Z,13.80
2018-04-24T19:24:29.714Z,13.30
2018-04-24T19:27:03.400Z,13.07
2018-04-24T19:29:37.260Z,14.13
2018-04-24T19:32:16.643Z,14.13
2018-04-24T19:34:50.248Z,13.03
2018-04-24T19:37:24.077Z,14.53
2018-04-24T19:40:03.489Z,13.90
2018-04-24T19:42:37.267Z,13.47
2018-04-24T19:45:10.799Z,14.37
2018-04-24T19:47:44.391Z,14.70
2018-04-24T19:50:20.175Z,13.97
2018-04-24T19:52:54.056Z,15.30
2018-04-24T19:55:27.840Z,13.87
2018-04-24T19:58:01.409Z,14.80
2018-04-24T20:00:34.936Z,14.93
2018-04-24T20:03:08.480Z,15.63
2018-04-24T20:05:42.148Z,15.10
2018-04-24T20:08:15.857Z,14.87
2018-04-24T20:10:49.563Z,14.23
2018-04-24T20:13:23.208Z,14.20
2018-04-24T20:15:56.799Z,14.50
2018-04-24T20:18:30.492Z,14.17
2018-04-24T20:21:04.176Z,15.03
2018-04-24T20:23:37.748Z,15.03
2018-04-24T20:26:11.307Z,14.30
2018-04-24T20:28:44.895Z,12.70
2018-04-24T20:31:18.580Z,14.30
2018-04-24T20:33:52.100Z,13.90
2018-04-24T20:36:25.672Z,12.90
2018-04-24T20:38:59.360Z,13.23
2018-04-24T20:41:33.045Z,13.67
2018-04-24T20:44:06.639Z,12.50
2018-04-24T20:46:40.136Z,12.90
2018-04-24T20:49:13.631Z,13.27
2018-04-24T20:51:47.245Z,14.03
2018-04-24T20:54:20.790Z,12.83
2018-04-24T20:56:54.471Z,13.73
2018-04-24T20:59:28.071Z,13.43
2018-04-24T21:02:01.804Z,13.37
2018-04-24T21:04:35.343Z,14.27
2018-04-24T21:07:08.835Z,14.90
2018-04-24T21:09:42.373Z,13.50
2018-04-24T21:12:15.903Z,13.83
2018-04-24T21:14:49.548Z,13.93
2018-04-24T21:17:23.164Z,13.63
2018-04-24T21:19:56.751Z,14.77
2018-04-24T21:22:30.368Z,15.80
2018-04-24T21:25:04.108Z,15.00
2018-04-24T21:27:37.880Z,15.70
2018-04-24T21:30:11.647Z,15.63
2018-04-24T21:32:45.261Z,16.30
2018-04-24T21:35:19.062Z,14.77
2018-04-24T21:37:52.860Z,14.67
2018-04-24T21:40:26.520Z,14.83
2018-04-24T21:43:00.064Z,14.40
2018-04-24T21:45:33.904Z,15.60
2018-04-24T21:48:07.433Z,15.17
2018-04-24T21:50:40.984Z,14.90
2018-04-24T21:53:14.635Z,15.10
2018-04-24T21:55:48.183Z,14.93
2018-04-24T21:58:21.916Z,14.77
2018-04-24T22:00:55.511Z,14.20
2018-04-24T22:03:29.395Z,15.17
2018-04-24T22:06:03.168Z,14.70
2018-04-24T22:08:36.853Z,15.67
2018-04-24T22:11:10.539Z,14.67
2018-04-24T22:13:44.411Z,14.90
2018-04-24T22:16:18.007Z,15.70
2018-04-24T22:18:51.821Z,14.87
2018-04-24T22:21:25.331Z,14.57
2018-04-24T22:23:59.011Z,14.40
2018-04-24T22:26:32.756Z,13.90
2018-04-24T22:29:06.385Z,13.10
2018-04-24T22:31:39.989Z,13.77
2018-04-24T22:34:13.540Z,14.93
2018-04-24T22:36:47.292Z,14.03
2018-04-24T22:39:20.867Z,13.40
2018-04-24T22:41:54.473Z,12.80
2018-04-24T22:44:28.197Z,13.43
2018-04-24T22:47:01.820Z,13.13
2018-04-24T22:49:35.404Z,12.03
2018-04-24T22:52:09.264Z,12.87
2018-04-24T22:54:43.171Z,12.60
2018-04-24T22:57:16.683Z,12.43
2018-04-24T22:59:50.259Z,11.23
2018-04-24T23:02:23.833Z,12.40
2018-04-24T23:04:57.340Z,11.73
2018-04-24T23:07:31.160Z,11.60
2018-04-24T23:10:04.157Z,10.83
2018-04-24T23:12:49.652Z,11.63
2018-04-24T23:15:35.149Z,9.67
2018-04-24T23:18:20.808Z,10.67
2018-04-24T23:20:53.976Z,10.07
2018-04-24T23:23:27.572Z,9.77
2018-04-24T23:26:01.086Z,9.67
2018-04-24T23:28:34.775Z,9.27
2018-04-24T23:31:08.416Z,8.97
2018-04-24T23:33:42.234Z,9.27
2018-04-24T23:36:15.919Z,8.17
2018-04-24T23:38:49.756Z,8.70
2018-04-24T23:41:23.501Z,9.20
2018-04-24T23:43:57.268Z,8.83
2018-04-24T23:46:30.864Z,8.33
2018-04-24T23:49:04.671Z,8.33
2018-04-24T23:51:38.312Z,8.53
2018-04-24T23:54:11.867Z,8.40
2018-04-24T23:56:45.460Z,7.83
2018-04-24T23:59:19.220Z,8.10
